createdAt,value
2019-05-02T00:00:10.686Z,99.90
2019-05-02T00:02:38.755Z,99.90
2019-05-02T00:05:08.450Z,99.90
2019-05-02T00:07:35.992Z,99.90
2019-05-02T00:10:05.578Z,99.90
2019-05-02T00:12:33.205Z,99.90
2019-05-02T00:15:01.955Z,99.90
2019-05-02T00:17:30.481Z,99.90
2019-05-02T00:19:58.039Z,99.90
2019-05-02T00:22:25.567Z,99.90
2019-05-02T00:24:53.112Z,99.90
2019-05-02T00:27:20.682Z,99.90
2019-05-02T00:29:48.238Z,99.90
2019-05-02T00:32:18.397Z,99.90
2019-05-02T00:34:45.034Z,99.90
2019-05-02T00:37:12.568Z,99.90
2019-05-02T00:39:40.115Z,99.90
2019-05-02T00:42:12.890Z,99.90
2019-05-02T00:44:36.939Z,99.90
2019-05-02T00:47:10.653Z,99.90
2019-05-02T00:49:35.649Z,99.90
2019-05-02T00:52:04.678Z,99.90
2019-05-02T00:54:32.231Z,99.90
2019-05-02T00:56:59.768Z,99.90
2019-05-02T00:59:27.341Z,99.90
2019-05-02T01:02:00.021Z,99.90
2019-05-02T01:04:30.154Z,99.90
2019-05-02T01:06:57.706Z,99.90
2019-05-02T01:09:25.257Z,99.90
2019-05-02T01:11:52.794Z,99.90
2019-05-02T01:14:20.346Z,99.90
2019-05-02T01:16:49.386Z,99.90
2019-05-02T01:19:17.283Z,99.90
2019-05-02T01:21:44.917Z,99.90
2019-05-02T01:24:12.448Z,99.90
2019-05-02T01:26:41.648Z,99.90
2019-05-02T01:29:10.845Z,99.90
2019-05-02T01:31:58.120Z,99.90
2019-05-02T01:34:27.282Z,99.90
2019-05-02T01:36:59.251Z,99.90
2019-05-02T01:39:26.798Z,99.90
2019-05-02T01:41:54.346Z,99.90
2019-05-02T01:44:21.882Z,99.90
2019-05-02T01:46:49.436Z,99.90
2019-05-02T01:49:21.631Z,99.90
2019-05-02T01:51:47.666Z,99.90
2019-05-02T01:54:15.524Z,99.90
2019-05-02T01:56:43.060Z,99.90
2019-05-02T01:59:10.615Z,99.90
2019-05-02T02:01:38.169Z,99.90
2019-05-02T02:04:05.707Z,99.90
2019-05-02T02:06:33.254Z,99.90
2019-05-02T02:09:03.391Z,99.90
2019-05-02T02:11:33.895Z,99.90
2019-05-02T02:13:59.316Z,99.90
2019-05-02T02:16:26.871Z,99.90
2019-05-02T02:18:59.004Z,99.90
2019-05-02T02:21:32.900Z,99.90
2019-05-02T02:24:08.239Z,99.90
2019-05-02T02:26:35.771Z,99.90
2019-05-02T02:29:07.690Z,99.90
2019-05-02T02:31:39.357Z,99.90
2019-05-02T02:34:01.870Z,99.90
2019-05-02T02:36:34.012Z,99.90
2019-05-02T02:38:58.666Z,99.90
2019-05-02T02:41:26.212Z,99.90
2019-05-02T02:44:04.168Z,99.90
2019-05-02T02:46:37.859Z,99.90
2019-05-02T02:49:05.242Z,99.90
2019-05-02T02:51:32.782Z,99.90
2019-05-02T02:54:03.985Z,99.90
2019-05-02T02:56:34.553Z,99.90
2019-05-02T02:58:58.871Z,99.90
2019-05-02T03:01:29.222Z,99.90
2019-05-02T03:04:02.044Z,99.90
2019-05-02T03:06:24.967Z,99.90
2019-05-02T03:08:52.509Z,99.90
2019-05-02T03:11:23.363Z,99.90
2019-05-02T03:13:54.140Z,99.90
2019-05-02T03:16:23.510Z,99.90
2019-05-02T03:18:51.064Z,99.90
2019-05-02T03:21:20.182Z,99.90
2019-05-02T03:23:47.871Z,99.90
2019-05-02T03:26:17.100Z,99.90
2019-05-02T03:28:44.848Z,99.90
2019-05-02T03:31:23.664Z,99.90
2019-05-02T03:33:55.088Z,99.90
2019-05-02T03:36:26.273Z,99.90
2019-05-02T03:38:40.527Z,99.90
2019-05-02T03:41:13.293Z,99.90
2019-05-02T03:43:37.362Z,99.90
2019-05-02T03:46:04.895Z,99.90
2019-05-02T03:48:32.456Z,99.90
2019-05-02T03:50:59.990Z,99.90
2019-05-02T03:53:27.843Z,99.90
2019-05-02T03:55:55.477Z,99.90
2019-05-02T03:58:23.016Z,99.90
2019-05-02T04:01:00.368Z,99.90
2019-05-02T04:03:19.826Z,99.90
2019-05-02T04:05:47.380Z,99.90
2019-05-02T04:08:20.970Z,99.90
2019-05-02T04:10:46.114Z,99.90
2019-05-02T04:13:13.906Z,99.90
2019-05-02T04:15:41.931Z,99.90
2019-05-02T04:18:15.325Z,99.90
2019-05-02T04:20:43.622Z,99.90
2019-05-02T04:23:08.049Z,99.90
2019-05-02T04:25:35.603Z,99.90
2019-05-02T04:28:05.904Z,99.90
2019-05-02T04:30:32.458Z,99.90
2019-05-02T04:33:00.083Z,99.90
2019-05-02T04:35:28.795Z,99.90
2019-05-02T04:37:58.948Z,99.90
2019-05-02T04:40:28.349Z,99.90
2019-05-02T04:43:05.506Z,99.90
2019-05-02T04:45:29.427Z,99.90
2019-05-02T04:47:58.566Z,99.90
2019-05-02T04:50:25.358Z,99.90
2019-05-02T04:52:54.050Z,99.90
2019-05-02T04:55:29.094Z,99.90
2019-05-02T04:57:51.227Z,99.90
2019-05-02T05:00:20.421Z,99.90
2019-05-02T05:02:48.885Z,99.90
2019-05-02T05:05:25.349Z,99.90
2019-05-02T05:07:49.336Z,99.90
2019-05-02T05:10:18.349Z,99.90
2019-05-02T05:12:45.098Z,99.90
2019-05-02T05:15:15.280Z,99.90
2019-05-02T05:17:41.996Z,99.90
2019-05-02T05:20:14.196Z,99.90
2019-05-02T05:22:44.240Z,99.90
2019-05-02T05:25:12.318Z,99.90
2019-05-02T05:27:38.993Z,99.90
2019-05-02T05:30:11.243Z,99.90
2019-05-02T05:32:37.588Z,99.90
2019-05-02T05:35:09.151Z,99.90
2019-05-02T05:37:35.125Z,99.90
2019-05-02T05:40:03.031Z,99.90
2019-05-02T05:42:33.396Z,99.90
2019-05-02T05:45:03.698Z,99.90
2019-05-02T05:47:29.097Z,99.90
2019-05-02T05:49:59.511Z,99.90
2019-05-02T05:52:27.137Z,99.90
2019-05-02T05:54:54.751Z,99.90
2019-05-02T05:57:22.311Z,99.90
2019-05-02T05:59:49.860Z,99.90
2019-05-02T06:02:18.359Z,99.90
2019-05-02T06:04:47.386Z,99.90
2019-05-02T06:07:17.629Z,99.90
2019-05-02T06:09:44.792Z,99.90
2019-05-02T06:12:12.330Z,99.90
2019-05-02T06:14:39.891Z,99.90
2019-05-02T06:17:07.456Z,99.90
2019-05-02T06:19:35.040Z,99.90
2019-05-02T06:22:02.870Z,99.90
2019-05-02T06:24:33.550Z,99.90
2019-05-02T06:26:59.725Z,99.90
2019-05-02T06:29:27.258Z,99.90
2019-05-02T06:31:54.792Z,99.90
2019-05-02T06:34:25.090Z,99.90
2019-05-02T06:36:52.651Z,99.90
2019-05-02T06:39:20.288Z,99.90
2019-05-02T06:41:52.109Z,99.90
2019-05-02T06:44:18.549Z,99.90
2019-05-02T06:46:46.370Z,99.90
2019-05-02T06:49:13.916Z,99.90
2019-05-02T06:51:41.472Z,99.90
2019-05-02T06:54:09.023Z,99.90
2019-05-02T06:56:36.568Z,99.90
2019-05-02T06:59:04.121Z,99.90
2019-05-02T07:01:31.826Z,99.90
2019-05-02T07:03:59.392Z,99.90
2019-05-02T07:06:26.952Z,99.90
2019-05-02T07:08:54.535Z,99.90
2019-05-02T07:11:22.120Z,99.90
2019-05-02T07:13:49.678Z,99.90
2019-05-02T07:16:36.861Z,99.90
2019-05-02T07:18:58.631Z,99.90
2019-05-02T07:21:26.165Z,99.90
2019-05-02T07:23:54.997Z,99.90
2019-05-02T07:26:23.356Z,99.90
2019-05-02T07:28:51.054Z,99.90
2019-05-02T07:31:18.629Z,99.90
2019-05-02T07:33:46.158Z,99.90
2019-05-02T07:36:13.715Z,99.90
2019-05-02T07:38:41.274Z,99.90
2019-05-02T07:41:08.958Z,99.90
2019-05-02T07:43:36.628Z,99.90
2019-05-02T07:46:04.441Z,99.90
2019-05-02T07:48:32.008Z,99.90
2019-05-02T07:50:59.534Z,99.90
2019-05-02T07:53:27.109Z,99.90
2019-05-02T07:55:54.749Z,99.90
2019-05-02T07:58:22.301Z,99.90
2019-05-02T08:00:49.840Z,99.90
2019-05-02T08:03:17.389Z,99.90
2019-05-02T08:05:44.952Z,99.90
2019-05-02T08:08:12.530Z,99.90
2019-05-02T08:10:40.096Z,99.90
2019-05-02T08:13:12.133Z,99.90
2019-05-02T08:15:36.992Z,99.90
2019-05-02T08:18:04.558Z,99.90
2019-05-02T08:20:32.097Z,99.90
2019-05-02T08:22:59.665Z,99.90
2019-05-02T08:25:27.231Z,99.90
2019-05-02T08:27:56.406Z,99.90
2019-05-02T08:30:25.600Z,99.90
2019-05-02T08:32:53.143Z,99.90
2019-05-02T08:35:20.698Z,99.50
2019-05-02T08:37:48.240Z,99.20
2019-05-02T08:40:15.928Z,98.90
2019-05-02T08:42:43.560Z,98.30
2019-05-02T08:45:11.109Z,99.30
2019-05-02T08:47:38.731Z,99.90
2019-05-02T08:50:07.807Z,97.10
2019-05-02T08:52:36.756Z,98.30
2019-05-02T08:55:09.714Z,98.90
2019-05-02T08:57:36.319Z,99.50
2019-05-02T09:00:04.821Z,98.50
2019-05-02T09:02:41.142Z,98.70
2019-05-02T09:05:04.689Z,98.50
2019-05-02T09:07:31.669Z,97.60
2019-05-02T09:10:05.370Z,96.50
2019-05-02T09:12:29.474Z,97.70
2019-05-02T09:14:57.033Z,97.60
2019-05-02T09:17:35.047Z,95.20
2019-05-02T09:20:02.271Z,97.90
2019-05-02T09:22:23.196Z,96.60
2019-05-02T09:24:52.026Z,96.50
2019-05-02T09:27:19.652Z,95.00
2019-05-02T09:29:47.206Z,94.20
2019-05-02T09:32:17.140Z,95.10
2019-05-02T09:34:44.029Z,91.70
2019-05-02T09:37:12.079Z,91.30
2019-05-02T09:39:41.260Z,90.30
2019-05-02T09:42:12.399Z,87.60
2019-05-02T09:44:38.264Z,81.90
2019-05-02T09:47:05.824Z,85.40
2019-05-02T09:49:33.368Z,84.20
2019-05-02T09:52:03.206Z,79.80
2019-05-02T09:54:32.129Z,79.20
2019-05-02T09:56:59.483Z,73.00
2019-05-02T09:59:33.487Z,75.10
2019-05-02T10:02:02.022Z,67.40
2019-05-02T10:04:29.638Z,65.20
2019-05-02T10:06:57.211Z,67.50
2019-05-02T10:09:27.204Z,67.20
2019-05-02T10:11:54.034Z,62.10
2019-05-02T10:14:22.594Z,62.60
2019-05-02T10:16:52.763Z,55.40
2019-05-02T10:19:19.776Z,53.80
2019-05-02T10:21:52.460Z,51.20
2019-05-02T10:24:16.690Z,52.70
2019-05-02T10:26:44.225Z,49.80
2019-05-02T10:29:12.761Z,49.60
2019-05-02T10:31:42.189Z,50.30
2019-05-02T10:34:16.246Z,44.70
2019-05-02T10:36:39.183Z,42.10
2019-05-02T10:39:06.837Z,41.80
2019-05-02T10:41:39.436Z,40.80
2019-05-02T10:44:03.652Z,36.20
2019-05-02T10:46:37.583Z,39.00
2019-05-02T10:49:12.573Z,39.90
2019-05-02T10:51:43.453Z,37.30
2019-05-02T10:54:09.463Z,34.60
2019-05-02T10:56:37.034Z,36.20
2019-05-02T10:59:04.635Z,36.50
2019-05-02T11:01:33.820Z,35.90
2019-05-02T11:04:06.012Z,35.30
2019-05-02T11:06:37.148Z,35.80
2019-05-02T11:09:04.857Z,35.80
2019-05-02T11:11:32.359Z,35.40
2019-05-02T11:14:18.307Z,35.00
2019-05-02T11:17:01.649Z,37.40
2019-05-02T11:19:36.201Z,38.90
2019-05-02T11:22:03.791Z,38.00
2019-05-02T11:24:31.651Z,38.10
2019-05-02T11:26:59.240Z,35.30
2019-05-02T11:29:26.802Z,37.90
2019-05-02T11:31:54.346Z,38.50
2019-05-02T11:34:22.201Z,39.50
2019-05-02T11:36:49.923Z,38.60
2019-05-02T11:39:26.579Z,38.60
2019-05-02T11:41:46.747Z,41.40
2019-05-02T11:44:14.312Z,41.50
2019-05-02T11:46:45.613Z,43.10
2019-05-02T11:49:12.262Z,43.00
2019-05-02T11:51:41.621Z,43.60
2019-05-02T11:54:09.509Z,44.70
2019-05-02T11:56:42.952Z,44.40
2019-05-02T11:59:06.428Z,45.80
2019-05-02T12:01:38.995Z,45.00
2019-05-02T12:04:07.618Z,47.60
2019-05-02T12:06:33.345Z,48.10
2019-05-02T12:09:02.037Z,47.40
2019-05-02T12:11:29.701Z,48.10
2019-05-02T12:13:57.324Z,50.20
2019-05-02T12:16:25.160Z,49.70
2019-05-02T12:18:53.797Z,48.80
2019-05-02T12:21:22.948Z,47.70
2019-05-02T12:23:52.675Z,50.60
2019-05-02T12:26:21.889Z,50.30
2019-05-02T12:28:49.162Z,50.80
2019-05-02T12:31:26.652Z,48.60
2019-05-02T12:33:54.688Z,48.80
2019-05-02T12:36:22.739Z,51.10
2019-05-02T12:38:52.640Z,51.70
2019-05-02T12:41:23.000Z,48.50
2019-05-02T12:43:49.046Z,49.70
2019-05-02T12:46:16.614Z,49.10
2019-05-02T12:48:44.146Z,48.10
2019-05-02T12:51:12.719Z,50.00
2019-05-02T12:53:41.808Z,50.00
2019-05-02T12:56:09.545Z,48.50
2019-05-02T12:58:37.074Z,49.20
2019-05-02T13:01:04.634Z,47.50
2019-05-02T13:03:36.774Z,49.60
2019-05-02T13:06:04.330Z,50.60
2019-05-02T13:08:32.346Z,50.10
2019-05-02T13:11:06.759Z,49.40
2019-05-02T13:13:33.900Z,49.30
2019-05-02T13:16:03.553Z,49.10
2019-05-02T13:18:36.255Z,49.70
2019-05-02T13:21:02.249Z,49.50
2019-05-02T13:23:51.702Z,50.90
2019-05-02T13:26:24.956Z,49.60
2019-05-02T13:28:48.619Z,50.50
2019-05-02T13:31:17.833Z,49.50
2019-05-02T13:33:47.004Z,49.20
2019-05-02T13:36:32.875Z,49.10
2019-05-02T13:39:01.677Z,48.20
2019-05-02T13:41:29.314Z,49.50
2019-05-02T13:43:56.880Z,50.50
2019-05-02T13:46:26.767Z,50.40
2019-05-02T13:49:13.102Z,48.90
2019-05-02T13:51:42.485Z,48.20
2019-05-02T13:54:09.946Z,49.20
2019-05-02T13:56:44.743Z,45.80
2019-05-02T13:59:12.935Z,45.30
2019-05-02T14:01:42.268Z,47.00
2019-05-02T14:04:10.209Z,46.50
2019-05-02T14:06:38.896Z,45.60
2019-05-02T14:09:18.339Z,47.70
2019-05-02T14:11:48.274Z,46.90
2019-05-02T14:14:15.866Z,44.30
2019-05-02T14:16:43.409Z,44.90
2019-05-02T14:19:12.618Z,43.80
2019-05-02T14:21:42.169Z,45.30
2019-05-02T14:24:11.689Z,46.40
2019-05-02T14:26:38.912Z,47.00
2019-05-02T14:29:07.153Z,47.00
2019-05-02T14:31:35.738Z,45.50
2019-05-02T14:34:21.731Z,44.30
2019-05-02T14:36:49.366Z,45.50
2019-05-02T14:39:16.898Z,45.10
2019-05-02T14:41:44.692Z,43.30
2019-05-02T14:44:12.292Z,43.90
2019-05-02T14:46:39.859Z,45.10
2019-05-02T14:49:07.450Z,44.80
2019-05-02T14:51:36.676Z,45.30
2019-05-02T14:54:08.221Z,46.10
2019-05-02T14:56:37.488Z,46.70
2019-05-02T14:59:09.355Z,47.90
2019-05-02T15:01:34.922Z,48.00
2019-05-02T15:04:06.504Z,49.10
2019-05-02T15:06:33.782Z,50.50
2019-05-02T15:09:02.503Z,51.90
2019-05-02T15:11:32.732Z,51.70
2019-05-02T15:13:59.435Z,52.30
2019-05-02T15:16:39.666Z,52.90
2019-05-02T15:18:57.130Z,53.80
2019-05-02T15:21:26.436Z,54.20
2019-05-02T15:23:57.774Z,53.20
2019-05-02T15:26:26.367Z,55.20
2019-05-02T15:28:52.536Z,54.20
2019-05-02T15:31:24.252Z,54.90
2019-05-02T15:34:01.589Z,56.50
2019-05-02T15:36:27.583Z,55.40
2019-05-02T15:38:55.127Z,55.60
2019-05-02T15:41:22.698Z,54.90
2019-05-02T15:43:52.216Z,54.60
2019-05-02T15:46:23.626Z,55.50
2019-05-02T15:48:48.764Z,53.30
2019-05-02T15:51:16.322Z,55.40
2019-05-02T15:53:48.572Z,59.10
2019-05-02T15:56:19.914Z,64.40
2019-05-02T15:58:44.306Z,73.20
2019-05-02T16:01:32.008Z,82.10
2019-05-02T16:04:05.617Z,93.50
2019-05-02T16:06:33.939Z,99.90
2019-05-02T16:09:02.450Z,99.90
2019-05-02T16:11:32.128Z,99.90
2019-05-02T16:13:59.601Z,99.90
2019-05-02T16:16:27.316Z,99.90
2019-05-02T16:18:54.902Z,99.90
2019-05-02T16:21:30.636Z,99.90
2019-05-02T16:24:17.161Z,99.90
2019-05-02T16:26:46.705Z,99.90
2019-05-02T16:29:19.554Z,99.90
2019-05-02T16:31:44.985Z,99.90
2019-05-02T16:34:15.040Z,99.90
2019-05-02T16:36:42.301Z,99.90
2019-05-02T16:39:13.268Z,99.90
2019-05-02T16:41:41.345Z,99.90
2019-05-02T16:44:09.619Z,99.90
2019-05-02T16:46:37.197Z,99.90
2019-05-02T16:49:08.758Z,99.90
2019-05-02T16:51:34.755Z,99.90
2019-05-02T16:54:05.055Z,99.90
2019-05-02T16:56:31.740Z,99.90
2019-05-02T16:58:59.331Z,99.90
2019-05-02T17:01:28.490Z,99.90
2019-05-02T17:03:57.770Z,99.90
2019-05-02T17:06:26.334Z,99.90
2019-05-02T17:09:04.599Z,99.90
2019-05-02T17:11:36.537Z,99.90
2019-05-02T17:14:07.007Z,99.90
2019-05-02T17:16:33.371Z,99.90
2019-05-02T17:19:01.663Z,99.90
2019-05-02T17:21:35.068Z,99.90
2019-05-02T17:23:58.789Z,99.90
2019-05-02T17:26:26.743Z,99.90
2019-05-02T17:28:54.297Z,99.90
2019-05-02T17:31:23.089Z,99.90
2019-05-02T17:33:52.422Z,99.90
2019-05-02T17:36:21.584Z,99.90
2019-05-02T17:38:51.940Z,99.90
2019-05-02T17:41:18.645Z,99.90
2019-05-02T17:43:46.246Z,99.90
2019-05-02T17:46:18.668Z,99.90
2019-05-02T17:48:43.247Z,99.90
2019-05-02T17:51:28.316Z,99.90
2019-05-02T17:53:55.539Z,99.90
2019-05-02T17:56:24.967Z,99.90
2019-05-02T17:58:54.201Z,99.90
2019-05-02T18:01:26.468Z,99.90
2019-05-02T18:03:55.573Z,99.90
2019-05-02T18:06:32.714Z,99.90
2019-05-02T18:08:55.304Z,99.90
2019-05-02T18:11:22.356Z,99.90
2019-05-02T18:13:51.720Z,99.90
2019-05-02T18:16:19.665Z,99.90
2019-05-02T18:18:52.036Z,99.90
2019-05-02T18:21:25.498Z,99.90
2019-05-02T18:23:51.922Z,99.90
2019-05-02T18:26:20.082Z,99.90
2019-05-02T18:28:49.364Z,99.90
2019-05-02T18:31:16.984Z,99.90
2019-05-02T18:33:44.687Z,99.90
2019-05-02T18:36:12.238Z,99.90
2019-05-02T18:38:41.605Z,99.90
2019-05-02T18:41:09.149Z,99.90
2019-05-02T18:43:43.631Z,99.90
2019-05-02T18:46:07.565Z,99.90
2019-05-02T18:48:36.623Z,99.90
2019-05-02T18:51:04.689Z,99.90
2019-05-02T18:53:32.725Z,99.90
2019-05-02T18:56:01.768Z,99.90
2019-05-02T18:58:31.816Z,99.90
2019-05-02T19:00:58.934Z,99.90
2019-05-02T19:03:26.493Z,99.90
2019-05-02T19:05:57.353Z,99.90
2019-05-02T19:08:31.312Z,99.90
2019-05-02T19:11:05.368Z,99.90
2019-05-02T19:13:22.416Z,99.90
2019-05-02T19:15:50.145Z,99.90
2019-05-02T19:18:19.591Z,99.90
2019-05-02T19:20:57.191Z,99.90
2019-05-02T19:23:22.654Z,99.90
2019-05-02T19:25:50.387Z,99.90
2019-05-02T19:28:29.050Z,99.90
2019-05-02T19:31:03.015Z,99.90
2019-05-02T19:33:27.714Z,99.90
2019-05-02T19:35:55.275Z,99.90
2019-05-02T19:38:26.306Z,99.90
2019-05-02T19:40:52.143Z,99.90
2019-05-02T19:43:19.756Z,99.90
2019-05-02T19:45:52.575Z,99.90
2019-05-02T19:48:16.635Z,99.90
2019-05-02T19:50:44.231Z,99.90
2019-05-02T19:53:18.124Z,99.90
2019-05-02T19:55:42.921Z,99.90
2019-05-02T19:58:10.350Z,99.90
2019-05-02T20:00:42.354Z,99.90
2019-05-02T20:03:07.199Z,99.90
2019-05-02T20:05:34.802Z,99.90
2019-05-02T20:08:02.577Z,99.90
2019-05-02T20:10:32.186Z,99.90
2019-05-02T20:12:59.538Z,99.90
2019-05-02T20:15:30.317Z,99.90
2019-05-02T20:18:00.660Z,99.90
2019-05-02T20:20:36.018Z,99.90
2019-05-02T20:23:15.208Z,99.90
2019-05-02T20:25:37.353Z,99.90
2019-05-02T20:28:02.110Z,99.90
2019-05-02T20:30:29.671Z,99.90
2019-05-02T20:32:57.236Z,99.90
2019-05-02T20:35:24.764Z,99.90
2019-05-02T20:37:52.619Z,99.90
2019-05-02T20:40:24.963Z,99.90
2019-05-02T20:42:52.818Z,99.90
2019-05-02T20:45:20.357Z,99.90
2019-05-02T20:47:47.897Z,99.90
2019-05-02T20:50:15.464Z,99.90
2019-05-02T20:52:43.003Z,99.90
2019-05-02T20:55:12.278Z,99.90
2019-05-02T20:57:39.907Z,99.90
2019-05-02T21:00:09.072Z,99.90
2019-05-02T21:02:36.640Z,99.90
2019-05-02T21:05:05.153Z,99.90
2019-05-02T21:07:34.373Z,99.90
2019-05-02T21:10:03.617Z,99.90
2019-05-02T21:12:31.155Z,99.90
2019-05-02T21:14:58.706Z,99.90
2019-05-02T21:17:26.289Z,99.90
2019-05-02T21:19:53.842Z,99.90
2019-05-02T21:22:22.820Z,99.90
2019-05-02T21:24:50.348Z,99.90
2019-05-02T21:27:17.895Z,99.90
2019-05-02T21:29:45.453Z,99.90
2019-05-02T21:32:12.983Z,99.90
2019-05-02T21:34:42.363Z,99.90
2019-05-02T21:37:09.786Z,99.90
2019-05-02T21:39:37.343Z,99.90
2019-05-02T21:42:04.933Z,99.90
2019-05-02T21:44:32.544Z,99.90
2019-05-02T21:47:00.086Z,99.90
2019-05-02T21:49:38.319Z,99.90
2019-05-02T21:52:13.196Z,99.90
2019-05-02T21:54:42.357Z,99.90
2019-05-02T21:57:12.141Z,99.90
2019-05-02T21:59:39.771Z,99.90
2019-05-02T22:02:08.962Z,99.90
2019-05-02T22:04:36.518Z,99.90
2019-05-02T22:07:04.050Z,99.90
2019-05-02T22:09:32.326Z,99.90
2019-05-02T22:12:00.292Z,99.90
2019-05-02T22:14:27.854Z,99.90
2019-05-02T22:16:55.403Z,99.90
2019-05-02T22:19:22.944Z,99.90
2019-05-02T22:21:52.255Z,99.90
2019-05-02T22:24:19.778Z,99.90
2019-05-02T22:26:47.327Z,99.90
2019-05-02T22:29:14.876Z,99.90
2019-05-02T22:31:43.005Z,99.90
2019-05-02T22:34:12.649Z,99.90
2019-05-02T22:36:40.041Z,99.90
2019-05-02T22:39:18.399Z,99.90
2019-05-02T22:41:45.966Z,99.90
2019-05-02T22:44:14.396Z,99.90
2019-05-02T22:46:43.634Z,99.90
2019-05-02T22:49:14.516Z,99.90
2019-05-02T22:51:42.633Z,99.90
2019-05-02T22:54:23.394Z,99.90
2019-05-02T22:56:39.449Z,99.90
2019-05-02T22:59:06.987Z,99.90
2019-05-02T23:01:34.559Z,99.90
2019-05-02T23:04:02.096Z,99.90
2019-05-02T23:06:29.677Z,99.90
2019-05-02T23:08:57.223Z,99.90
2019-05-02T23:11:24.805Z,99.90
2019-05-02T23:13:52.450Z,99.90
2019-05-02T23:16:20.076Z,99.90
2019-05-02T23:18:47.656Z,99.90
2019-05-02T23:21:15.181Z,99.90
2019-05-02T23:23:42.755Z,99.90
2019-05-02T23:26:18.056Z,99.90
2019-05-02T23:28:47.283Z,99.90
2019-05-02T23:31:14.811Z,99.90
2019-05-02T23:33:57.418Z,99.90
2019-05-02T23:36:26.037Z,99.90
2019-05-02T23:38:53.737Z,99.90
2019-05-02T23:41:22.095Z,99.90
2019-05-02T23:44:09.133Z,99.90
2019-05-02T23:46:36.695Z,99.90
2019-05-02T23:49:04.264Z,99.90
2019-05-02T23:51:32.221Z,99.90
2019-05-02T23:54:01.910Z,99.90
2019-05-02T23:56:29.108Z,99.90
2019-05-02T23:58:56.667Z,99.90
